Time;durP1;ratioP1;P1;durP2;ratioP2;P2;SDS_P1;SDS_P2;PMS_P1;PMS_P2;Temp;Humidity;BMP_temperature;BMP_pressure;BME280_temperature;BME280_humidity;BME280_pressure;Samples;Min_cycle;Max_cycle;Signal;HPM_P1;HPM_P2
2021/12/19 00:00:13;;;;;;;8.57;3.15;;;6.20;99.90;;;;;;5038991;28;20199;-58
2021/12/19 00:10:28;;;;;;;4.88;2.80;;;6.20;99.90;;;;;;5039312;28;20234;-58
2021/12/19 00:12:57;;;;;;;4.68;3.70;;;6.20;99.90;;;;;;5039487;28;20542;-56
2021/12/19 00:15:25;;;;;;;3.60;3.22;;;6.20;99.90;;;;;;5039257;28;20256;-57
2021/12/19 00:17:52;;;;;;;5.30;4.47;;;6.20;99.90;;;;;;5039287;28;20436;-53
2021/12/19 00:20:20;;;;;;;9.10;4.80;;;6.20;99.90;;;;;;5039810;28;20445;-52
2021/12/19 00:23:07;;;;;;;4.40;3.25;;;6.20;99.90;;;;;;5038860;28;20219;-54
2021/12/19 00:25:35;;;;;;;4.55;3.60;;;6.20;99.90;;;;;;5039267;28;20372;-58
2021/12/19 00:28:02;;;;;;;6.30;4.38;;;6.30;99.90;;;;;;5038917;28;20433;-58
2021/12/19 00:30:30;;;;;;;5.03;3.97;;;6.30;99.90;;;;;;5039234;28;20453;-58
2021/12/19 00:32:57;;;;;;;6.40;4.50;;;6.20;99.90;;;;;;5038624;28;20224;-57
2021/12/19 00:35:26;;;;;;;7.10;5.50;;;6.30;99.90;;;;;;5039389;28;20387;-54
2021/12/19 00:37:54;;;;;;;4.57;3.95;;;6.40;99.90;;;;;;5038502;28;20212;-54
2021/12/19 00:40:21;;;;;;;4.35;3.95;;;6.40;99.90;;;;;;5039128;28;20322;-54
2021/12/19 00:43:01;;;;;;;6.22;5.10;;;6.30;99.90;;;;;;5038646;28;20228;-57
2021/12/19 00:45:34;;;;;;;7.10;4.63;;;6.30;99.90;;;;;;5039381;28;20470;-57
2021/12/19 00:48:04;;;;;;;5.65;3.30;;;6.30;99.90;;;;;;5041351;28;20204;-55
2021/12/19 00:50:33;;;;;;;4.50;3.95;;;6.40;99.90;;;;;;5043011;28;20257;-55
2021/12/19 00:53:02;;;;;;;6.10;3.70;;;6.40;99.90;;;;;;5042386;28;20261;-56
2021/12/19 00:55:30;;;;;;;6.05;4.18;;;6.40;99.90;;;;;;5042801;28;20204;-55
2021/12/19 00:57:57;;;;;;;5.75;4.60;;;6.40;99.90;;;;;;5042165;28;20222;-57
2021/12/19 01:00:28;;;;;;;5.95;4.50;;;6.40;99.90;;;;;;5042737;28;20314;-57
2021/12/19 01:02:59;;;;;;;5.13;4.60;;;6.40;99.90;;;;;;5042271;28;20526;-57
2021/12/19 01:05:28;;;;;;;8.43;5.47;;;6.40;99.90;;;;;;5042819;28;20198;-54
2021/12/19 01:07:56;;;;;;;5.32;4.28;;;6.40;99.90;;;;;;5042292;28;20250;-56
2021/12/19 01:10:23;;;;;;;9.32;5.65;;;6.40;99.90;;;;;;5042513;28;20200;-57
2021/12/19 01:12:52;;;;;;;9.27;7.95;;;6.50;99.90;;;;;;5042184;28;20220;-57
2021/12/19 01:15:20;;;;;;;7.85;5.93;;;6.50;99.90;;;;;;5042096;28;20240;-55
2021/12/19 01:17:48;;;;;;;6.65;5.18;;;6.50;99.90;;;;;;5034336;28;20212;-55
2021/12/19 01:20:25;;;;;;;6.93;5.50;;;6.50;99.90;;;;;;5042584;28;20436;-59
2021/12/19 01:22:53;;;;;;;4.70;4.20;;;6.40;99.90;;;;;;5045629;28;20284;-53
2021/12/19 01:25:20;;;;;;;9.38;6.55;;;6.50;99.90;;;;;;5044692;28;20200;-59
2021/12/19 01:27:47;;;;;;;9.60;6.38;;;6.50;99.90;;;;;;5042586;28;20525;-55
2021/12/19 01:30:16;;;;;;;8.32;6.93;;;6.40;99.90;;;;;;5042123;28;20203;-52
2021/12/19 01:32:44;;;;;;;8.15;6.28;;;6.50;99.90;;;;;;5042036;28;20227;-52
2021/12/19 01:35:13;;;;;;;7.63;6.05;;;6.50;99.90;;;;;;5041847;28;20242;-53
2021/12/19 01:37:41;;;;;;;5.00;4.50;;;6.50;99.90;;;;;;5041849;28;20488;-52
2021/12/19 01:40:11;;;;;;;7.22;5.70;;;6.50;99.90;;;;;;5041527;28;20357;-55
2021/12/19 01:42:41;;;;;;;6.75;6.15;;;6.60;99.90;;;;;;5041784;28;20235;-58
2021/12/19 01:45:12;;;;;;;10.48;5.28;;;6.60;99.90;;;;;;5041929;28;20378;-54
2021/12/19 01:47:40;;;;;;;7.85;5.97;;;6.60;99.90;;;;;;5041198;28;20196;-56
2021/12/19 01:50:09;;;;;;;11.75;6.72;;;6.60;99.90;;;;;;5041699;28;20449;-54
2021/12/19 01:52:38;;;;;;;10.15;6.50;;;6.60;99.90;;;;;;5041507;28;20235;-55
2021/12/19 01:55:06;;;;;;;10.50;7.32;;;6.60;99.90;;;;;;5041915;28;20262;-57
2021/12/19 01:57:34;;;;;;;7.45;6.10;;;6.70;99.90;;;;;;5041720;28;20242;-53
2021/12/19 02:00:06;;;;;;;7.78;6.15;;;6.70;99.90;;;;;;5041603;28;20242;-54
2021/12/19 02:02:33;;;;;;;10.20;5.68;;;6.70;99.90;;;;;;5041154;28;20259;-55
2021/12/19 02:05:00;;;;;;;7.03;5.80;;;6.70;99.90;;;;;;5041696;28;20271;-56
2021/12/19 02:07:28;;;;;;;7.18;5.68;;;6.80;99.90;;;;;;5041353;28;20235;-53
2021/12/19 02:09:55;;;;;;;14.32;6.20;;;6.80;99.90;;;;;;5041752;28;20196;-57
2021/12/19 02:12:23;;;;;;;5.82;5.20;;;6.80;99.90;;;;;;5041113;28;20231;-57
2021/12/19 02:14:50;;;;;;;6.72;5.90;;;6.80;99.90;;;;;;5041232;28;20215;-57
2021/12/19 02:17:17;;;;;;;9.98;5.65;;;6.80;99.90;;;;;;5040785;28;20438;-55
2021/12/19 02:19:45;;;;;;;6.70;4.93;;;6.90;99.90;;;;;;5040764;28;20206;-58
2021/12/19 02:22:13;;;;;;;7.85;6.10;;;6.90;99.90;;;;;;5041220;28;20501;-55
2021/12/19 02:24:40;;;;;;;7.72;5.50;;;6.90;99.90;;;;;;5040936;28;20514;-58
2021/12/19 02:27:07;;;;;;;8.88;5.68;;;6.90;99.90;;;;;;5041203;28;20204;-52
2021/12/19 02:29:34;;;;;;;12.95;5.53;;;6.90;99.90;;;;;;5040988;28;20242;-55
2021/12/19 02:32:04;;;;;;;8.95;4.85;;;6.90;99.90;;;;;;5040757;28;20261;-54
2021/12/19 02:34:37;;;;;;;11.88;6.68;;;6.90;99.90;;;;;;5040696;28;20195;-55
2021/12/19 02:37:18;;;;;;;6.30;5.70;;;6.90;99.90;;;;;;5040884;28;20513;-56
2021/12/19 02:50:20;;;;;;;4.88;4.32;;;7.10;99.90;;;;;;5040618;28;20200;-54
2021/12/19 02:52:48;;;;;;;9.43;7.28;;;7.10;99.90;;;;;;5040589;28;20619;-55
2021/12/19 02:55:16;;;;;;;6.20;5.10;;;7.10;99.90;;;;;;5040411;28;20246;-54
2021/12/19 02:57:49;;;;;;;6.88;5.95;;;7.10;99.90;;;;;;5040446;28;20204;-55
2021/12/19 03:00:23;;;;;;;8.68;6.18;;;7.10;99.90;;;;;;5040746;28;20204;-56
2021/12/19 03:02:50;;;;;;;11.38;5.97;;;7.10;99.90;;;;;;5039894;28;20228;-54
2021/12/19 03:05:18;;;;;;;8.15;6.07;;;7.20;99.90;;;;;;5040608;28;20207;-56
2021/12/19 03:07:46;;;;;;;9.43;7.28;;;7.10;99.90;;;;;;5039771;28;20528;-54
2021/12/19 03:18:39;;;;;;;8.07;7.25;;;7.20;99.90;;;;;;5039951;28;20354;-56
2021/12/19 03:21:11;;;;;;;8.30;6.90;;;7.20;99.90;;;;;;5040012;28;20254;-55
2021/12/19 03:23:39;;;;;;;9.50;6.18;;;7.20;99.90;;;;;;5039505;28;20458;-56
2021/12/19 03:26:06;;;;;;;15.23;7.70;;;7.20;99.90;;;;;;5040193;28;20200;-54
2021/12/19 03:28:34;;;;;;;8.68;6.70;;;7.20;99.90;;;;;;5039839;28;20200;-56
2021/12/19 03:31:02;;;;;;;11.02;6.63;;;7.20;99.90;;;;;;5039937;28;20246;-55
2021/12/19 03:33:31;;;;;;;10.50;7.28;;;7.20;99.90;;;;;;5039988;28;20258;-56
2021/12/19 03:35:58;;;;;;;10.25;7.38;;;7.20;99.90;;;;;;5039848;28;20203;-56
2021/12/19 03:38:26;;;;;;;8.40;5.82;;;7.20;99.90;;;;;;5039905;28;20223;-57
2021/12/19 03:41:09;;;;;;;10.65;6.05;;;7.20;99.90;;;;;;5039509;28;20514;-53
2021/12/19 03:43:36;;;;;;;7.90;5.53;;;7.20;99.90;;;;;;5039470;28;20224;-55
2021/12/19 03:46:04;;;;;;;8.35;5.18;;;7.10;99.90;;;;;;5039532;28;20204;-55
2021/12/19 03:48:31;;;;;;;5.25;4.75;;;7.10;99.90;;;;;;5039867;28;20450;-55
2021/12/19 03:50:59;;;;;;;8.48;5.35;;;7.10;99.90;;;;;;5039876;28;20187;-58
2021/12/19 03:53:26;;;;;;;5.88;5.18;;;7.10;99.90;;;;;;5039841;28;20274;-57
2021/12/19 03:55:54;;;;;;;9.15;5.38;;;7.10;99.90;;;;;;5039464;28;20249;-54
2021/12/19 03:58:22;;;;;;;10.68;4.78;;;7.10;99.90;;;;;;5039860;28;20271;-52
2021/12/19 04:00:51;;;;;;;6.20;4.40;;;7.10;99.90;;;;;;5039423;28;20208;-58
2021/12/19 04:03:20;;;;;;;8.48;6.65;;;7.10;99.90;;;;;;5039698;28;20237;-51
2021/12/19 04:05:49;;;;;;;5.05;3.95;;;7.10;99.90;;;;;;5039755;28;20218;-54
2021/12/19 04:08:17;;;;;;;6.90;5.03;;;7.10;99.90;;;;;;5039697;28;20204;-55
2021/12/19 04:10:47;;;;;;;7.25;4.50;;;7.10;99.90;;;;;;5039518;28;20254;-51
2021/12/19 04:13:15;;;;;;;5.00;3.63;;;7.10;99.90;;;;;;5039484;28;20223;-54
2021/12/19 04:15:43;;;;;;;4.20;3.10;;;7.10;99.90;;;;;;5039453;28;20200;-56
2021/12/19 04:18:11;;;;;;;5.93;4.63;;;7.10;99.90;;;;;;5039567;28;20204;-55
2021/12/19 04:20:38;;;;;;;5.97;4.05;;;7.10;99.90;;;;;;5039594;28;20262;-53
2021/12/19 04:23:05;;;;;;;3.33;3.13;;;7.10;99.90;;;;;;5042178;28;20220;-55
2021/12/19 04:25:33;;;;;;;5.78;4.05;;;7.10;99.90;;;;;;5043168;28;20196;-56
2021/12/19 04:28:00;;;;;;;7.68;4.35;;;7.00;99.90;;;;;;5042709;28;20250;-52
2021/12/19 04:30:28;;;;;;;5.43;3.47;;;7.00;99.90;;;;;;5043512;28;20234;-51
2021/12/19 04:33:08;;;;;;;6.78;4.60;;;7.10;99.90;;;;;;5043177;28;20468;-54
2021/12/19 04:35:39;;;;;;;4.95;3.42;;;7.00;99.90;;;;;;5043742;28;20231;-54
2021/12/19 04:40:51;;;;;;;4.13;3.38;;;7.00;99.90;;;;;;5042960;28;20204;-53
2021/12/19 05:00:02;;;;;;;6.88;3.95;;;7.00;99.90;;;;;;5000975;28;20240;-54
2021/12/19 05:05:16;;;;;;;5.00;3.92;;;7.00;99.90;;;;;;5029647;28;20232;-57
2021/12/19 05:16:01;;;;;;;3.45;2.85;;;7.10;99.90;;;;;;5042597;28;20196;-53
2021/12/19 05:18:32;;;;;;;8.85;4.20;;;7.10;99.90;;;;;;5042513;28;20196;-54
2021/12/19 05:21:05;;;;;;;9.35;4.05;;;7.10;99.90;;;;;;5042426;28;20202;-53
2021/12/19 05:26:00;;;;;;;4.55;4.13;;;7.20;99.90;;;;;;5041765;28;20204;-55
2021/12/19 05:28:28;;;;;;;6.45;3.40;;;7.10;99.90;;;;;;5042806;28;20417;-56
2021/12/19 05:30:56;;;;;;;6.18;3.90;;;7.20;99.90;;;;;;5041921;28;20254;-53
2021/12/19 05:33:24;;;;;;;7.53;3.83;;;7.20;99.90;;;;;;5042131;28;20228;-56
2021/12/19 05:45:12;;;;;;;4.60;3.92;;;7.30;99.90;;;;;;5041788;28;20596;-54
2021/12/19 05:47:02;;;;;;;3.65;3.30;;;7.30;99.90;;;;;;5041506;28;20200;-57
2021/12/19 05:49:30;;;;;;;6.47;3.17;;;7.30;99.90;;;;;;5041946;28;20204;-55
2021/12/19 05:51:58;;;;;;;5.05;3.53;;;7.30;99.90;;;;;;5041110;28;20235;-57
2021/12/19 05:54:25;;;;;;;11.63;5.57;;;7.30;99.90;;;;;;5041678;28;20200;-54
2021/12/19 05:56:53;;;;;;;6.45;3.60;;;7.20;99.90;;;;;;5041188;28;20200;-58
2021/12/19 05:59:19;;;;;;;4.45;3.00;;;7.30;99.90;;;;;;5041475;28;20200;-56
2021/12/19 06:01:47;;;;;;;6.15;3.33;;;7.30;99.90;;;;;;5041271;28;20254;-56
2021/12/19 06:04:14;;;;;;;7.68;3.65;;;7.20;99.90;;;;;;5041489;28;20257;-56
2021/12/19 06:06:41;;;;;;;4.13;3.70;;;7.20;99.90;;;;;;5041140;28;20525;-56
2021/12/19 06:09:08;;;;;;;5.70;2.83;;;7.30;99.90;;;;;;5041845;28;20499;-55
2021/12/19 06:11:36;;;;;;;10.52;3.63;;;7.20;99.90;;;;;;5041506;28;20243;-51
2021/12/19 06:14:03;;;;;;;3.95;3.58;;;7.20;99.90;;;;;;5041023;28;20574;-57
2021/12/19 06:16:31;;;;;;;3.63;3.33;;;7.20;99.90;;;;;;5041320;28;20436;-52
2021/12/19 06:18:58;;;;;;;5.95;3.75;;;7.20;99.90;;;;;;5041154;28;20274;-53
2021/12/19 06:21:25;;;;;;;3.28;2.97;;;7.20;99.90;;;;;;5041457;28;20223;-59
2021/12/19 06:23:53;;;;;;;6.13;3.22;;;7.20;99.90;;;;;;5041113;28;20283;-55
2021/12/19 06:26:20;;;;;;;9.00;3.92;;;7.20;99.90;;;;;;5041109;28;20498;-58
2021/12/19 06:28:47;;;;;;;6.43;2.90;;;7.20;99.90;;;;;;5040883;28;20430;-52
2021/12/19 06:31:17;;;;;;;6.65;3.33;;;7.10;99.90;;;;;;5041182;28;20219;-54
2021/12/19 06:33:45;;;;;;;4.50;3.30;;;7.10;99.90;;;;;;5040648;28;20220;-55
2021/12/19 06:36:12;;;;;;;5.60;3.45;;;7.10;99.90;;;;;;5040934;28;20207;-55
2021/12/19 06:38:39;;;;;;;2.83;2.60;;;7.00;99.90;;;;;;5040792;28;20517;-55
2021/12/19 06:41:07;;;;;;;7.35;4.60;;;7.00;99.90;;;;;;5040599;28;20200;-53
2021/12/19 06:43:34;;;;;;;8.40;3.75;;;6.90;99.90;;;;;;5041292;28;20274;-57
2021/12/19 06:46:01;;;;;;;5.53;3.35;;;6.90;99.90;;;;;;5039551;28;20196;-54
2021/12/19 06:48:29;;;;;;;5.63;3.60;;;6.80;99.90;;;;;;5040710;28;20196;-55
2021/12/19 06:50:56;;;;;;;4.13;3.03;;;6.80;99.90;;;;;;5040551;28;20266;-55
2021/12/19 06:53:23;;;;;;;3.22;2.70;;;6.70;99.90;;;;;;5040573;28;20236;-57
2021/12/19 06:55:50;;;;;;;4.88;3.72;;;6.70;99.90;;;;;;5040093;28;20258;-55
2021/12/19 06:58:18;;;;;;;6.68;2.90;;;6.70;99.90;;;;;;5040526;28;20204;-56
2021/12/19 07:00:46;;;;;;;3.65;3.00;;;6.70;99.90;;;;;;5040229;28;20525;-58
2021/12/19 07:03:15;;;;;;;5.43;3.40;;;6.80;99.90;;;;;;5040490;28;20223;-54
2021/12/19 07:05:43;;;;;;;5.53;3.75;;;6.80;99.90;;;;;;5040264;28;20196;-54
2021/12/19 07:08:10;;;;;;;4.28;3.17;;;6.90;99.90;;;;;;5040465;28;20258;-53
2021/12/19 07:10:37;;;;;;;6.70;2.72;;;6.90;99.90;;;;;;5040250;28;20234;-55
2021/12/19 07:13:05;;;;;;;2.60;2.35;;;6.90;99.90;;;;;;5040325;28;20542;-54
2021/12/19 07:15:32;;;;;;;5.15;2.72;;;6.90;99.90;;;;;;5039503;28;20276;-55
2021/12/19 07:18:04;;;;;;;2.92;2.53;;;6.90;99.90;;;;;;5039874;28;20390;-54
2021/12/19 07:20:31;;;;;;;5.97;3.35;;;6.90;99.90;;;;;;5039826;28;20520;-54
2021/12/19 07:22:59;;;;;;;5.15;3.45;;;6.90;99.90;;;;;;5039734;28;20478;-57
2021/12/19 07:25:26;;;;;;;2.88;2.67;;;6.90;99.90;;;;;;5040087;28;20442;-57
2021/12/19 07:27:53;;;;;;;4.53;3.20;;;6.90;99.90;;;;;;5039749;28;20210;-57
2021/12/19 07:30:24;;;;;;;3.92;2.50;;;7.00;99.90;;;;;;5042955;28;20226;-59
2021/12/19 07:32:54;;;;;;;4.57;3.25;;;7.00;99.90;;;;;;5040657;28;20220;-58
2021/12/19 07:35:23;;;;;;;3.08;2.65;;;7.00;99.90;;;;;;5040940;28;20216;-57
2021/12/19 07:37:52;;;;;;;6.57;3.28;;;6.90;99.90;;;;;;5041326;28;20199;-59
2021/12/19 07:40:21;;;;;;;8.40;2.90;;;6.90;99.90;;;;;;5044036;28;20218;-59
2021/12/19 07:42:49;;;;;;;3.35;3.00;;;6.90;99.90;;;;;;5042176;28;20419;-52
2021/12/19 07:45:19;;;;;;;6.07;3.17;;;6.90;99.90;;;;;;5039960;28;20227;-56
2021/12/19 07:47:46;;;;;;;3.70;3.28;;;6.90;99.90;;;;;;5039539;28;20196;-56
2021/12/19 07:50:15;;;;;;;5.00;2.95;;;6.90;99.90;;;;;;5039315;28;20271;-54
2021/12/19 07:52:42;;;;;;;3.70;3.33;;;7.00;99.90;;;;;;5039951;28;20216;-55
2021/12/19 07:55:09;;;;;;;12.18;4.97;;;7.00;99.90;;;;;;5039753;28;20387;-54
2021/12/19 07:57:37;;;;;;;5.63;3.65;;;7.00;99.90;;;;;;5043948;28;20246;-57
2021/12/19 08:00:07;;;;;;;4.82;3.97;;;7.00;99.90;;;;;;5042188;28;20200;-55
2021/12/19 08:02:34;;;;;;;4.82;3.13;;;7.00;99.90;;;;;;5043140;28;20216;-55
2021/12/19 08:05:02;;;;;;;3.10;2.65;;;7.00;99.90;;;;;;5042376;28;20286;-52
2021/12/19 08:07:30;;;;;;;2.60;2.40;;;7.00;99.90;;;;;;5043694;28;20247;-54
2021/12/19 08:10:14;;;;;;;3.70;3.38;;;6.90;99.90;;;;;;5043330;28;20207;-53
2021/12/19 08:12:42;;;;;;;4.90;3.70;;;6.90;99.90;;;;;;5041703;28;20371;-56
2021/12/19 08:15:10;;;;;;;10.88;3.83;;;6.80;99.90;;;;;;5039876;28;20680;-56
2021/12/19 08:17:43;;;;;;;4.30;3.42;;;6.70;99.90;;;;;;5043018;28;20203;-56
2021/12/19 08:20:10;;;;;;;6.50;3.20;;;6.70;99.90;;;;;;5043607;28;20528;-54
2021/12/19 08:22:37;;;;;;;5.15;3.38;;;6.60;99.90;;;;;;5043380;28;20228;-54
2021/12/19 08:25:06;;;;;;;5.60;3.15;;;6.50;99.90;;;;;;5043139;28;20220;-58
2021/12/19 08:27:34;;;;;;;4.15;3.03;;;6.50;99.90;;;;;;5043155;28;20427;-55
2021/12/19 08:30:04;;;;;;;5.85;3.80;;;6.50;99.90;;;;;;5043149;28;20522;-54
2021/12/19 08:32:32;;;;;;;8.32;3.50;;;6.50;99.90;;;;;;5040466;28;20583;-57
2021/12/19 08:34:59;;;;;;;4.85;3.70;;;6.50;99.90;;;;;;5046210;28;20203;-54
2021/12/19 08:37:26;;;;;;;7.07;4.28;;;6.40;99.90;;;;;;5042433;28;20265;-53
2021/12/19 08:39:54;;;;;;;10.05;3.85;;;6.40;99.90;;;;;;5041938;28;20207;-54
2021/12/19 08:42:21;;;;;;;4.53;3.38;;;6.40;99.90;;;;;;5037741;28;20462;-53
2021/12/19 08:44:49;;;;;;;4.35;3.42;;;6.40;99.90;;;;;;5041873;28;20533;-57
2021/12/19 08:47:16;;;;;;;7.38;4.03;;;6.50;99.90;;;;;;5042244;28;20196;-53
2021/12/19 08:49:43;;;;;;;4.70;3.63;;;6.50;99.90;;;;;;5042675;28;20250;-57
2021/12/19 08:52:11;;;;;;;5.07;3.50;;;6.50;99.90;;;;;;5042913;28;20228;-57
2021/12/19 08:54:38;;;;;;;4.55;3.20;;;6.50;99.90;;;;;;5042576;28;20207;-55
2021/12/19 08:57:05;;;;;;;3.22;2.75;;;6.50;99.90;;;;;;5040826;28;20255;-54
2021/12/19 08:59:33;;;;;;;3.60;3.30;;;6.50;99.90;;;;;;5042087;28;20204;-57
2021/12/19 09:02:01;;;;;;;7.63;3.30;;;6.50;99.90;;;;;;5041383;28;20394;-53
2021/12/19 09:04:30;;;;;;;5.18;3.75;;;6.50;99.90;;;;;;5042335;28;20220;-57
2021/12/19 09:06:59;;;;;;;4.65;3.78;;;6.50;99.90;;;;;;5038896;28;20204;-55
2021/12/19 09:09:26;;;;;;;3.15;2.85;;;6.50;99.90;;;;;;5037013;28;20204;-55
2021/12/19 09:11:54;;;;;;;6.88;3.55;;;6.50;99.90;;;;;;5041602;28;20237;-54
2021/12/19 09:14:21;;;;;;;3.58;3.28;;;6.50;99.90;;;;;;5037788;28;20236;-55
2021/12/19 09:16:48;;;;;;;6.07;4.25;;;6.50;99.90;;;;;;5027518;28;20204;-54
2021/12/19 09:19:16;;;;;;;3.50;2.92;;;6.50;99.90;;;;;;5028467;28;20228;-54
2021/12/19 09:21:43;;;;;;;3.33;3.03;;;6.50;99.90;;;;;;5022808;28;20201;-58
2021/12/19 09:24:10;;;;;;;6.32;3.00;;;6.40;99.90;;;;;;5035703;28;20452;-55
2021/12/19 09:26:39;;;;;;;3.47;3.17;;;6.40;99.90;;;;;;5042270;28;20196;-57
2021/12/19 09:29:07;;;;;;;4.55;3.30;;;6.40;99.90;;;;;;5040955;28;20200;-53
2021/12/19 09:31:34;;;;;;;3.42;2.70;;;6.40;99.90;;;;;;5041896;28;20197;-55
2021/12/19 09:34:01;;;;;;;3.10;1.90;;;6.50;99.90;;;;;;5041706;28;20386;-55
2021/12/19 09:36:29;;;;;;;6.78;2.45;;;6.60;99.90;;;;;;5038184;28;20525;-53
2021/12/19 09:38:56;;;;;;;4.05;2.75;;;6.60;99.90;;;;;;5041179;28;20391;-54
2021/12/19 09:41:29;;;;;;;3.28;3.00;;;6.60;99.90;;;;;;5041336;28;20196;-54
2021/12/19 09:44:02;;;;;;;2.58;2.20;;;6.60;99.90;;;;;;5041279;28;20254;-57
2021/12/19 09:46:37;;;;;;;2.05;1.95;;;6.50;99.90;;;;;;5040841;28;20238;-57
2021/12/19 09:49:08;;;;;;;2.28;2.08;;;6.40;99.90;;;;;;5039228;28;20203;-55
2021/12/19 09:51:37;;;;;;;5.38;2.00;;;6.40;99.90;;;;;;5041134;28;20453;-58
2021/12/19 09:54:06;;;;;;;2.70;1.80;;;6.40;99.90;;;;;;5041443;28;20290;-54
2021/12/19 09:56:34;;;;;;;2.50;2.00;;;6.40;99.90;;;;;;5041056;28;20207;-52
2021/12/19 09:59:06;;;;;;;2.22;2.00;;;6.50;99.90;;;;;;5041653;28;20234;-51
2021/12/19 10:01:34;;;;;;;2.28;2.08;;;6.50;99.90;;;;;;5041947;28;20235;-51
2021/12/19 10:04:01;;;;;;;1.70;1.60;;;6.60;99.90;;;;;;5043590;28;20228;-54
2021/12/19 10:06:30;;;;;;;2.97;2.17;;;6.60;99.90;;;;;;5045596;28;20210;-50
2021/12/19 10:09:18;;;;;;;2.13;1.75;;;6.60;99.90;;;;;;5041676;28;20250;-51
2021/12/19 10:11:59;;;;;;;3.65;1.92;;;6.70;99.90;;;;;;5041598;28;20219;-50
2021/12/19 10:14:29;;;;;;;2.58;1.83;;;6.70;99.90;;;;;;5041391;28;20410;-50
2021/12/19 10:16:59;;;;;;;8.25;2.50;;;6.70;99.90;;;;;;5041936;28;20200;-49
2021/12/19 10:19:50;;;;;;;5.75;2.90;;;6.60;99.90;;;;;;5040140;28;20211;-52
2021/12/19 10:22:37;;;;;;;1.73;1.55;;;6.50;99.90;;;;;;5041308;28;20270;-51
2021/12/19 10:25:13;;;;;;;5.63;3.47;;;6.40;99.90;;;;;;5039108;28;20269;-50
2021/12/19 10:27:43;;;;;;;2.90;2.60;;;6.50;99.90;;;;;;5040713;28;20249;-49
2021/12/19 10:30:32;;;;;;;2.45;2.25;;;6.40;99.90;;;;;;5040170;28;20203;-50
2021/12/19 10:33:09;;;;;;;2.17;2.08;;;6.40;99.90;;;;;;5040698;28;20216;-52
2021/12/19 10:35:42;;;;;;;3.75;3.10;;;6.40;99.90;;;;;;5040995;28;20210;-47
2021/12/19 10:38:15;;;;;;;2.70;2.45;;;6.40;99.90;;;;;;5040521;28;20246;-49
2021/12/19 10:40:52;;;;;;;2.28;2.08;;;6.40;99.90;;;;;;5040708;28;20548;-51
2021/12/19 10:43:20;;;;;;;2.92;2.60;;;6.50;99.90;;;;;;5040743;28;20283;-53
2021/12/19 10:45:51;;;;;;;3.47;3.08;;;6.50;99.90;;;;;;5040331;28;20530;-48
2021/12/19 10:48:44;;;;;;;2.58;2.35;;;6.40;99.90;;;;;;5040532;28;20226;-53
2021/12/19 10:51:19;;;;;;;2.55;2.05;;;6.40;99.90;;;;;;5036895;28;20387;-52
2021/12/19 10:53:55;;;;;;;3.50;2.80;;;6.40;99.90;;;;;;5040371;28;20259;-49
2021/12/19 10:56:32;;;;;;;2.97;2.03;;;6.40;99.90;;;;;;4979306;22;20239;-57
2021/12/19 10:59:09;;;;;;;7.13;2.35;;;6.40;99.90;;;;;;4942464;28;20253;-50
2021/12/19 11:01:38;;;;;;;4.03;2.60;;;6.40;99.90;;;;;;4941334;28;20217;-52
2021/12/19 11:04:08;;;;;;;4.18;2.17;;;6.40;99.90;;;;;;4940983;28;20208;-50
2021/12/19 11:06:40;;;;;;;2.22;2.03;;;6.40;99.90;;;;;;5034362;28;20542;-54
2021/12/19 11:09:12;;;;;;;2.67;2.42;;;6.40;99.90;;;;;;5039259;28;20203;-53
2021/12/19 11:11:48;;;;;;;4.15;2.97;;;6.40;99.90;;;;;;5040467;28;20250;-51
2021/12/19 11:14:33;;;;;;;2.17;1.98;;;6.40;99.90;;;;;;5036953;28;20203;-54
2021/12/19 11:17:06;;;;;;;2.28;2.10;;;6.40;99.90;;;;;;5040666;28;20218;-50
2021/12/19 11:19:34;;;;;;;1.80;1.50;;;6.50;99.90;;;;;;5040708;28;20479;-51
2021/12/19 11:22:26;;;;;;;1.55;1.40;;;6.50;99.90;;;;;;5040871;28;20196;-48
2021/12/19 11:25:02;;;;;;;1.98;1.85;;;6.50;99.90;;;;;;5039817;28;20281;-52
2021/12/19 11:27:32;;;;;;;1.60;1.50;;;6.60;99.90;;;;;;5038248;28;20382;-57
2021/12/19 11:30:00;;;;;;;3.10;1.92;;;6.70;99.90;;;;;;5039944;28;20203;-51
2021/12/19 11:33:06;;;;;;;1.55;1.30;;;6.80;99.90;;;;;;5040369;28;20199;-51
2021/12/19 11:35:37;;;;;;;2.38;2.17;;;6.90;99.90;;;;;;5040916;28;20222;-53
2021/12/19 11:38:11;;;;;;;3.33;2.10;;;7.00;99.90;;;;;;5039671;28;20200;-52
2021/12/19 11:40:43;;;;;;;2.20;1.73;;;7.10;99.90;;;;;;5035591;28;20541;-52
2021/12/19 11:43:12;;;;;;;1.58;1.23;;;7.00;99.90;;;;;;5037209;28;20207;-54
2021/12/19 11:45:47;;;;;;;3.25;1.90;;;7.10;99.90;;;;;;5037491;28;20683;-51
2021/12/19 11:48:26;;;;;;;2.00;1.80;;;7.20;99.90;;;;;;5039074;28;20200;-51
2021/12/19 11:50:56;;;;;;;3.58;1.80;;;7.10;99.90;;;;;;5041764;28;20354;-55
2021/12/19 11:53:26;;;;;;;6.40;2.00;;;7.00;99.90;;;;;;5041749;28;20212;-53
2021/12/19 11:56:05;;;;;;;7.03;4.35;;;7.00;99.90;;;;;;5040215;28;20295;-52
2021/12/19 11:58:46;;;;;;;4.32;1.48;;;6.90;99.90;;;;;;5040605;28;20234;-52
2021/12/19 12:01:19;;;;;;;1.95;1.40;;;6.70;99.90;;;;;;5040501;28;20204;-53
2021/12/19 12:04:21;;;;;;;1.45;1.35;;;6.70;99.90;;;;;;5039535;28;20200;-51
2021/12/19 12:06:56;;;;;;;1.23;1.05;;;6.70;99.90;;;;;;5038190;28;20265;-55
2021/12/19 12:09:30;;;;;;;3.08;1.42;;;6.90;99.90;;;;;;5042696;28;20203;-52
2021/12/19 12:12:03;;;;;;;1.40;1.17;;;6.90;99.90;;;;;;5039981;28;20255;-54
2021/12/19 12:14:35;;;;;;;1.80;0.85;;;7.00;99.90;;;;;;5039055;28;20199;-54
2021/12/19 12:17:12;;;;;;;1.90;1.08;;;7.10;99.90;;;;;;5037689;28;20227;-56
2021/12/19 12:19:57;;;;;;;1.92;1.20;;;7.20;99.90;;;;;;5037279;28;20200;-56
2021/12/19 12:22:37;;;;;;;3.95;1.25;;;7.20;99.90;;;;;;5038972;28;20196;-53
2021/12/19 12:25:30;;;;;;;1.30;1.20;;;7.30;99.90;;;;;;5039021;28;20287;-50
2021/12/19 12:28:08;;;;;;;2.60;1.20;;;7.30;99.90;;;;;;5038911;28;20243;-55
2021/12/19 12:30:39;;;;;;;2.08;1.23;;;7.20;99.90;;;;;;5039288;28;20223;-53
2021/12/19 12:33:09;;;;;;;1.30;1.20;;;7.00;99.90;;;;;;5039962;28;20200;-51
2021/12/19 12:35:40;;;;;;;2.90;1.10;;;7.00;99.90;;;;;;5044648;28;20221;-58
2021/12/19 12:38:08;;;;;;;1.55;1.20;;;6.80;99.90;;;;;;5044527;28;20515;-52
2021/12/19 12:40:57;;;;;;;4.10;1.80;;;6.80;99.90;;;;;;5039792;28;20239;-49
2021/12/19 12:43:30;;;;;;;3.45;1.60;;;6.80;99.90;;;;;;5041689;28;20556;-53
2021/12/19 12:46:07;;;;;;;2.53;1.23;;;6.80;99.90;;;;;;5043045;28;20266;-53
2021/12/19 12:49:00;;;;;;;1.83;1.05;;;6.70;99.90;;;;;;5044067;28;20196;-50
2021/12/19 12:51:44;;;;;;;1.55;1.13;;;6.60;99.90;;;;;;5043972;28;20206;-52
2021/12/19 12:54:26;;;;;;;2.20;1.60;;;6.70;99.90;;;;;;5044072;28;20491;-50
2021/12/19 12:56:56;;;;;;;1.48;1.38;;;6.90;99.90;;;;;;5043703;28;20200;-50
2021/12/19 12:59:32;;;;;;;1.20;1.10;;;7.00;99.90;;;;;;5043516;28;20223;-52
2021/12/19 13:02:26;;;;;;;2.15;1.45;;;7.00;99.90;;;;;;5044078;28;20303;-51
2021/12/19 13:04:55;;;;;;;2.03;1.70;;;7.00;99.90;;;;;;5043286;28;20223;-55
2021/12/19 13:07:26;;;;;;;1.35;1.25;;;6.80;99.90;;;;;;5043080;28;20552;-49
2021/12/19 13:09:57;;;;;;;1.75;1.23;;;6.70;99.90;;;;;;5043368;28;20250;-51
2021/12/19 13:12:31;;;;;;;1.33;1.17;;;6.80;99.90;;;;;;5042887;28;20200;-53
2021/12/19 13:15:02;;;;;;;1.30;1.20;;;6.90;99.90;;;;;;5044046;28;20227;-49
2021/12/19 13:17:41;;;;;;;2.70;1.00;;;6.90;99.90;;;;;;5044252;28;20204;-49
2021/12/19 13:20:24;;;;;;;2.42;1.85;;;7.00;99.90;;;;;;5045658;28;20196;-53
2021/12/19 13:23:00;;;;;;;1.23;1.23;;;6.90;99.90;;;;;;5045905;28;20271;-53
2021/12/19 13:25:42;;;;;;;1.33;1.23;;;7.00;99.90;;;;;;5046402;28;20227;-51
2021/12/19 13:28:12;;;;;;;1.15;1.05;;;6.90;99.90;;;;;;5046522;28;20495;-54
2021/12/19 13:30:42;;;;;;;2.55;1.00;;;6.80;99.90;;;;;;5048192;28;20200;-56
2021/12/19 13:33:18;;;;;;;1.77;1.45;;;6.70;99.90;;;;;;5046539;28;20197;-52
2021/12/19 13:35:51;;;;;;;1.48;1.08;;;6.60;99.90;;;;;;5043070;28;20230;-54
2021/12/19 13:38:26;;;;;;;1.88;1.20;;;6.50;99.90;;;;;;5043602;28;20200;-55
2021/12/19 13:40:55;;;;;;;3.80;1.63;;;6.40;99.90;;;;;;5042935;28;20227;-55
2021/12/19 13:43:32;;;;;;;1.70;1.60;;;6.50;99.90;;;;;;5043101;28;20200;-54
2021/12/19 13:46:05;;;;;;;1.58;1.42;;;6.40;99.90;;;;;;5042500;28;20273;-54
2021/12/19 13:48:35;;;;;;;1.50;0.98;;;6.40;99.90;;;;;;5042780;28;20430;-56
2021/12/19 13:51:07;;;;;;;1.60;1.33;;;6.50;99.90;;;;;;5043425;28;20391;-55
2021/12/19 13:53:37;;;;;;;1.33;1.23;;;6.50;99.90;;;;;;5043018;28;20200;-53
2021/12/19 13:56:26;;;;;;;1.33;1.00;;;6.50;99.90;;;;;;5042870;28;20255;-52
2021/12/19 13:58:55;;;;;;;1.05;0.82;;;6.60;99.90;;;;;;5046795;28;20422;-55
2021/12/19 14:01:33;;;;;;;1.63;1.35;;;6.60;99.90;;;;;;5048448;28;20219;-51
2021/12/19 14:04:20;;;;;;;1.23;1.13;;;6.60;99.90;;;;;;5047585;28;20203;-53
2021/12/19 14:06:49;;;;;;;3.05;1.08;;;6.50;99.90;;;;;;5047015;28;20234;-55
2021/12/19 14:09:22;;;;;;;1.60;1.20;;;6.50;99.90;;;;;;5042639;28;20204;-53
2021/12/19 14:11:58;;;;;;;1.25;1.10;;;6.30;99.90;;;;;;5041970;28;20507;-51
2021/12/19 14:14:30;;;;;;;2.00;1.52;;;6.20;99.90;;;;;;5044327;28;20203;-54
2021/12/19 14:17:09;;;;;;;1.10;1.00;;;6.20;99.90;;;;;;5044994;28;20210;-49
2021/12/19 14:19:37;;;;;;;2.83;2.10;;;6.20;99.90;;;;;;5041649;28;20204;-53
2021/12/19 14:22:09;;;;;;;1.67;1.58;;;6.20;99.90;;;;;;5042330;28;20230;-53